Time;durP1;ratioP1;P1;durP2;ratioP2;P2;SDS_P1;SDS_P2;PMS_P1;PMS_P2;Temp;Humidity;BMP_temperature;BMP_pressure;BME280_temperature;BME280_humidity;BME280_pressure;Samples;Min_cycle;Max_cycle;Signal;HPM_P1;HPM_P2
2024/02/03 00:01:59;;;;;;;31.73;16.17;;;;;;;7.77;100.00;102413.88;5013354;28;20389;-79
2024/02/03 00:04:24;;;;;;;29.33;15.93;;;;;;;7.73;100.00;102409.03;4994513;28;20602;-79
2024/02/03 00:06:50;;;;;;;28.63;15.70;;;;;;;7.74;100.00;102403.78;4998976;28;20025;-80
2024/02/03 00:09:15;;;;;;;25.95;14.15;;;;;;;7.78;100.00;102407.81;4992541;28;20046;-79
2024/02/03 00:11:45;;;;;;;25.88;14.77;;;;;;;7.72;100.00;102395.28;4990774;28;20037;-78
2024/02/03 00:14:10;;;;;;;28.95;15.05;;;;;;;7.72;100.00;102397.03;5008318;28;20046;-80
2024/02/03 00:16:36;;;;;;;24.33;13.93;;;;;;;7.71;100.00;102395.38;5029823;28;20134;-80
2024/02/03 00:19:01;;;;;;;27.15;14.52;;;;;;;7.70;100.00;102407.44;4990090;28;20034;-80
2024/02/03 00:21:27;;;;;;;27.08;13.90;;;;;;;7.67;100.00;102409.44;5012638;28;20120;-80
2024/02/03 00:23:52;;;;;;;29.20;14.95;;;;;;;7.66;100.00;102408.56;5024780;28;20042;-79
2024/02/03 00:26:17;;;;;;;23.80;14.20;;;;;;;7.74;100.00;102406.34;5005716;28;20042;-79
2024/02/03 00:28:43;;;;;;;21.77;12.65;;;;;;;7.68;100.00;102398.16;5007786;28;20092;-78
2024/02/03 00:31:09;;;;;;;21.65;12.65;;;;;;;7.67;100.00;102412.81;5003373;28;20018;-79
2024/02/03 00:33:34;;;;;;;22.83;12.77;;;;;;;7.74;100.00;102408.09;5009739;28;20042;-79
2024/02/03 00:36:00;;;;;;;21.63;12.60;;;;;;;7.81;100.00;102401.59;5025975;28;20527;-78
2024/02/03 00:38:25;;;;;;;29.23;13.20;;;;;;;7.76;100.00;102407.06;4983280;28;20041;-79
2024/02/03 00:40:51;;;;;;;21.75;12.18;;;;;;;7.75;100.00;102397.66;5001241;28;20301;-79
2024/02/03 00:43:16;;;;;;;23.92;13.10;;;;;;;7.74;100.00;102398.59;5023978;28;20037;-79
2024/02/03 00:45:45;;;;;;;20.63;12.05;;;;;;;7.71;100.00;102393.63;4987619;28;20053;-79
2024/02/03 00:48:11;;;;;;;21.83;11.80;;;;;;;7.68;100.00;102401.56;5005099;28;20880;-80
2024/02/03 00:50:36;;;;;;;21.02;11.32;;;;;;;7.72;100.00;102399.59;4997828;28;20034;-79
2024/02/03 00:53:01;;;;;;;21.90;12.30;;;;;;;7.66;100.00;102408.56;4990801;28;20042;-79
2024/02/03 00:55:27;;;;;;;21.58;12.43;;;;;;;7.59;100.00;102403.00;5005357;28;20044;-80
2024/02/03 00:57:52;;;;;;;19.65;11.77;;;;;;;7.56;100.00;102404.94;5020315;28;20065;-80
2024/02/03 01:00:20;;;;;;;20.77;12.00;;;;;;;7.73;100.00;102401.28;5006698;28;20038;-79
2024/02/03 01:02:45;;;;;;;21.77;12.80;;;;;;;7.78;100.00;102392.31;4985079;28;20041;-80
2024/02/03 01:05:11;;;;;;;22.63;12.07;;;;;;;7.76;100.00;102401.91;5005887;28;20029;-79
2024/02/03 01:07:37;;;;;;;19.00;11.65;;;;;;;7.80;100.00;102394.81;4989065;28;20038;-79
2024/02/03 01:10:03;;;;;;;22.80;12.73;;;;;;;7.75;100.00;102395.06;4990719;28;20129;-79
2024/02/03 01:12:28;;;;;;;20.75;12.13;;;;;;;7.80;100.00;102390.44;5010018;28;20033;-79
2024/02/03 01:14:54;;;;;;;20.45;11.82;;;;;;;7.80;100.00;102393.03;5002775;28;20038;-79
2024/02/03 01:17:19;;;;;;;23.10;11.38;;;;;;;7.73;100.00;102409.84;4982738;28;20025;-79
2024/02/03 01:19:45;;;;;;;21.25;11.55;;;;;;;7.72;100.00;102413.38;5015110;28;20046;-79
2024/02/03 01:22:10;;;;;;;21.10;12.18;;;;;;;7.73;100.00;102407.25;4980962;28;20026;-79
2024/02/03 01:24:36;;;;;;;20.08;11.73;;;;;;;7.76;100.00;102404.50;4999088;28;20054;-78
2024/02/03 01:27:01;;;;;;;18.40;10.93;;;;;;;7.76;100.00;102396.75;5003447;28;20069;-79
2024/02/03 01:29:27;;;;;;;22.00;11.40;;;;;;;7.75;100.00;102386.50;4998776;28;20061;-79
2024/02/03 01:31:52;;;;;;;19.92;10.82;;;;;;;7.81;100.00;102391.28;4983141;28;20030;-80
2024/02/03 01:34:18;;;;;;;18.95;10.93;;;;;;;7.67;100.00;102399.09;5015000;28;20053;-79
2024/02/03 01:36:43;;;;;;;16.20;10.10;;;;;;;7.72;100.00;102397.03;4999280;28;20034;-79
2024/02/03 01:39:09;;;;;;;16.13;10.10;;;;;;;7.71;100.00;102390.22;4996462;28;20289;-79
2024/02/03 01:41:35;;;;;;;16.85;10.57;;;;;;;7.72;100.00;102394.44;5017994;28;20022;-80
2024/02/03 01:44:01;;;;;;;17.23;10.68;;;;;;;7.86;100.00;102386.66;5021784;28;20045;-79
2024/02/03 01:46:27;;;;;;;17.40;10.48;;;;;;;7.73;100.00;102375.47;5024706;28;20076;-78
2024/02/03 01:48:53;;;;;;;16.27;9.73;;;;;;;7.73;100.00;102381.44;5007557;28;20536;-79
2024/02/03 01:51:20;;;;;;;16.27;9.60;;;;;;;7.79;100.00;102369.88;5007641;28;20037;-79
2024/02/03 01:53:46;;;;;;;16.52;9.05;;;;;;;7.76;100.00;102375.25;5022920;28;20046;-79
2024/02/03 01:56:15;;;;;;;15.68;9.32;;;;;;;7.84;100.00;102369.59;5005697;28;20406;-79
2024/02/03 01:58:41;;;;;;;17.75;10.32;;;;;;;7.83;100.00;102373.09;4986262;28;20068;-79
2024/02/03 02:01:07;;;;;;;16.77;9.45;;;;;;;7.70;100.00;102371.28;5022738;28;20033;-79
2024/02/03 02:03:33;;;;;;;19.08;10.32;;;;;;;7.82;100.00;102374.88;5008588;28;20083;-79
2024/02/03 02:05:58;;;;;;;14.35;9.07;;;;;;;7.91;100.00;102373.41;5030285;28;20469;-78
2024/02/03 02:08:37;;;;;;;16.17;9.88;;;;;;;7.92;100.00;102373.31;5005235;28;20113;-79
2024/02/03 02:11:04;;;;;;;16.95;9.50;;;;;;;7.82;100.00;102374.00;4994442;28;20029;-79
2024/02/03 02:13:30;;;;;;;16.40;9.30;;;;;;;7.84;100.00;102367.84;5008971;28;20044;-78
2024/02/03 02:15:56;;;;;;;16.38;9.63;;;;;;;7.78;100.00;102365.66;4991255;28;20033;-78
2024/02/03 02:18:22;;;;;;;18.10;10.15;;;;;;;7.85;100.00;102376.41;4993385;28;20038;-78
2024/02/03 02:20:48;;;;;;;18.40;10.35;;;;;;;7.81;100.00;102368.03;5027119;28;20127;-79
2024/02/03 02:23:13;;;;;;;16.13;9.98;;;;;;;7.80;100.00;102362.03;4989840;28;20069;-78
2024/02/03 02:25:39;;;;;;;17.00;9.90;;;;;;;7.75;100.00;102347.78;4993511;28;20052;-79
2024/02/03 02:28:04;;;;;;;19.23;11.23;;;;;;;7.82;100.00;102353.34;5004039;28;20033;-79
2024/02/03 02:30:30;;;;;;;16.65;9.95;;;;;;;7.80;100.00;102348.31;4993253;28;20034;-78
2024/02/03 02:32:55;;;;;;;19.88;12.00;;;;;;;7.78;100.00;102363.91;4991389;28;20075;-78
2024/02/03 02:35:21;;;;;;;21.70;10.43;;;;;;;7.83;100.00;102353.25;4987591;28;20029;-79
2024/02/03 02:37:46;;;;;;;20.25;10.82;;;;;;;7.76;100.00;102349.41;4992701;28;20513;-78
2024/02/03 02:40:12;;;;;;;15.98;10.38;;;;;;;7.85;100.00;102338.50;4992847;28;20037;-79
2024/02/03 02:42:38;;;;;;;20.67;11.32;;;;;;;7.86;100.00;102336.75;5028903;28;20481;-79
2024/02/03 02:45:04;;;;;;;16.52;9.93;;;;;;;7.81;100.00;102347.38;5028254;28;20037;-78
2024/02/03 02:47:30;;;;;;;18.60;10.82;;;;;;;7.85;100.00;102341.06;5011114;28;20041;-79
2024/02/03 02:49:56;;;;;;;17.35;10.35;;;;;;;7.83;100.00;102345.50;5009700;28;20117;-78
2024/02/03 02:52:21;;;;;;;17.45;10.63;;;;;;;7.79;100.00;102344.88;4995202;28;20034;-79
2024/02/03 02:54:47;;;;;;;21.10;10.77;;;;;;;7.90;100.00;102335.63;4993282;28;20034;-78
2024/02/03 02:57:12;;;;;;;17.77;10.60;;;;;;;7.81;100.00;102329.28;4997119;28;20080;-79
2024/02/03 02:59:38;;;;;;;19.30;11.23;;;;;;;7.80;100.00;102332.81;4992852;28;20030;-79
2024/02/03 03:02:03;;;;;;;21.27;11.60;;;;;;;7.82;100.00;102325.78;5010802;28;20030;-79
2024/02/03 03:04:29;;;;;;;20.13;11.35;;;;;;;7.89;100.00;102318.47;5023835;28;20428;-78
2024/02/03 03:06:54;;;;;;;18.10;10.77;;;;;;;7.89;100.00;102313.28;5008169;28;20812;-79
2024/02/03 03:09:19;;;;;;;18.13;10.88;;;;;;;7.86;100.00;102318.69;4996156;28;20037;-79
2024/02/03 03:11:45;;;;;;;20.45;11.32;;;;;;;7.86;100.00;102309.16;5000914;28;20030;-79
2024/02/03 03:14:11;;;;;;;16.58;9.98;;;;;;;7.94;100.00;102306.06;5026308;28;20038;-79
2024/02/03 03:16:36;;;;;;;18.08;11.10;;;;;;;7.88;100.00;102307.31;5012983;28;20057;-80
2024/02/03 03:19:02;;;;;;;17.95;10.13;;;;;;;7.93;100.00;102310.41;4996551;28;20030;-80
2024/02/03 03:21:27;;;;;;;18.80;9.90;;;;;;;7.90;100.00;102314.97;5007822;28;20062;-78
2024/02/03 03:23:53;;;;;;;16.15;9.57;;;;;;;7.86;100.00;102303.19;5008219;28;20042;-79
2024/02/03 03:26:18;;;;;;;16.58;10.07;;;;;;;7.87;100.00;102295.31;5014272;28;20091;-79
2024/02/03 03:28:43;;;;;;;18.70;10.50;;;;;;;7.95;100.00;102310.31;5008243;28;20442;-79
2024/02/03 03:31:09;;;;;;;17.55;10.75;;;;;;;7.93;100.00;102300.09;5011279;28;20519;-80
2024/02/03 03:33:34;;;;;;;17.40;10.57;;;;;;;7.95;100.00;102300.81;4991994;28;20061;-78
2024/02/03 03:36:00;;;;;;;15.85;9.60;;;;;;;7.92;100.00;102300.19;5012601;28;20026;-80
2024/02/03 03:38:26;;;;;;;17.40;10.68;;;;;;;7.91;100.00;102290.75;5010449;28;20037;-79
2024/02/03 03:40:52;;;;;;;18.77;10.07;;;;;;;7.87;100.00;102304.81;5014103;28;20034;-79
2024/02/03 03:43:17;;;;;;;16.98;10.68;;;;;;;7.99;100.00;102293.69;5029185;28;20061;-79
2024/02/03 03:45:43;;;;;;;17.10;10.35;;;;;;;7.95;100.00;102300.00;5009861;28;20408;-78
2024/02/03 03:48:08;;;;;;;14.65;9.70;;;;;;;7.88;100.00;102302.13;5009432;28;20037;-79
2024/02/03 03:50:33;;;;;;;14.60;9.40;;;;;;;7.92;100.00;102307.94;5013091;28;20036;-78
2024/02/03 03:52:59;;;;;;;18.67;10.02;;;;;;;7.99;100.00;102314.34;5007387;28;20038;-78
2024/02/03 03:55:24;;;;;;;22.10;9.73;;;;;;;7.87;100.00;102321.13;5014774;28;20026;-79
2024/02/03 03:57:50;;;;;;;17.38;10.15;;;;;;;7.96;100.00;102309.38;5012080;28;20064;-79
2024/02/03 04:00:16;;;;;;;17.67;10.70;;;;;;;8.03;100.00;102313.22;5013715;28;21621;-78
2024/02/03 04:02:41;;;;;;;18.73;9.75;;;;;;;8.09;100.00;102317.13;5009524;28;20023;-77
2024/02/03 04:05:07;;;;;;;19.27;10.55;;;;;;;8.11;100.00;102305.75;5027257;28;20084;-78
2024/02/03 04:07:32;;;;;;;18.60;10.00;;;;;;;8.01;100.00;102314.25;4990522;28;20041;-79
2024/02/03 04:09:58;;;;;;;18.70;10.68;;;;;;;8.07;100.00;102308.66;5010692;28;20057;-79
2024/02/03 04:12:23;;;;;;;16.42;9.85;;;;;;;7.97;100.00;102313.63;5009970;28;20029;-79
2024/02/03 04:14:49;;;;;;;16.45;9.68;;;;;;;8.01;100.00;102309.91;4994634;28;20044;-79
2024/02/03 04:17:15;;;;;;;19.27;9.63;;;;;;;8.02;100.00;102308.97;4992080;28;20033;-79
2024/02/03 04:19:41;;;;;;;15.80;10.13;;;;;;;7.94;100.00;102314.63;5010389;28;20038;-80
2024/02/03 04:22:12;;;;;;;20.10;10.50;;;;;;;8.07;100.00;102309.47;5007031;28;20034;-79
2024/02/03 04:24:38;;;;;;;20.98;12.13;;;;;;;8.02;100.00;102301.22;5007571;28;20030;-79
2024/02/03 04:27:04;;;;;;;18.98;11.73;;;;;;;7.95;100.00;102300.81;5017862;28;20041;-79
2024/02/03 04:29:30;;;;;;;20.70;11.00;;;;;;;7.97;100.00;102296.38;5026253;28;20042;-79
2024/02/03 04:31:55;;;;;;;23.30;12.23;;;;;;;8.00;100.00;102308.22;5009957;28;20676;-78
2024/02/03 04:34:21;;;;;;;21.45;11.88;;;;;;;7.95;100.00;102303.38;4995432;28;20472;-80
2024/02/03 04:36:46;;;;;;;22.42;12.32;;;;;;;7.97;100.00;102303.28;5026645;28;20034;-79
2024/02/03 04:39:13;;;;;;;22.75;11.88;;;;;;;8.02;100.00;102302.97;5008801;28;20034;-79
2024/02/03 04:41:38;;;;;;;23.00;11.93;;;;;;;7.98;100.00;102287.66;4989873;28;20026;-80
2024/02/03 04:44:04;;;;;;;17.73;11.00;;;;;;;7.90;100.00;102292.53;5011855;28;20030;-80
2024/02/03 04:46:29;;;;;;;23.63;11.65;;;;;;;8.01;100.00;102284.06;5009639;28;20041;-79
2024/02/03 04:48:55;;;;;;;22.33;13.30;;;;;;;8.13;100.00;102295.34;5011043;28;20034;-79
2024/02/03 04:51:21;;;;;;;23.52;11.80;;;;;;;8.03;100.00;102291.72;4995164;28;20022;-79
2024/02/03 04:53:46;;;;;;;21.88;11.43;;;;;;;8.02;100.00;102290.06;5006371;28;20046;-79
2024/02/03 04:56:12;;;;;;;20.13;11.90;;;;;;;8.05;100.00;102284.69;5007664;28;20033;-78
2024/02/03 04:58:37;;;;;;;21.95;12.43;;;;;;;7.97;100.00;102283.44;5007699;28;20049;-79
2024/02/03 05:01:04;;;;;;;22.55;13.27;;;;;;;7.97;100.00;102286.03;4994252;28;20467;-78
2024/02/03 05:03:31;;;;;;;22.52;11.68;;;;;;;7.95;100.00;102287.06;4991347;28;20091;-80
2024/02/03 05:06:01;;;;;;;21.15;13.18;;;;;;;7.94;100.00;102283.63;5010879;28;20038;-77
2024/02/03 05:08:26;;;;;;;23.10;11.85;;;;;;;8.05;100.00;102282.94;5030637;28;20437;-79
2024/02/03 05:10:52;;;;;;;22.02;11.38;;;;;;;8.05;100.00;102277.75;4992664;28;20060;-80
2024/02/03 05:13:17;;;;;;;25.67;12.82;;;;;;;8.07;100.00;102283.66;4992330;28;20057;-78
2024/02/03 05:15:42;;;;;;;24.45;11.98;;;;;;;8.10;100.00;102277.44;4993688;28;20463;-79
2024/02/03 05:18:08;;;;;;;20.17;10.88;;;;;;;8.05;100.00;102275.19;4994007;28;20037;-78
2024/02/03 05:20:33;;;;;;;19.52;11.32;;;;;;;8.12;100.00;102283.34;5010478;28;20029;-78
2024/02/03 05:22:59;;;;;;;23.77;11.40;;;;;;;8.15;100.00;102276.19;5026114;28;20046;-79
2024/02/03 05:25:25;;;;;;;18.40;10.32;;;;;;;8.23;100.00;102270.53;4995625;28;20034;-78
2024/02/03 05:27:50;;;;;;;18.42;10.13;;;;;;;8.14;100.00;102271.16;5011639;28;20037;-79
2024/02/03 05:30:15;;;;;;;19.85;11.13;;;;;;;8.06;100.00;102274.25;5007013;28;20025;-79
2024/02/03 05:32:41;;;;;;;21.08;10.75;;;;;;;8.08;100.00;102272.41;5009521;28;20029;-79
2024/02/03 05:35:07;;;;;;;19.48;11.57;;;;;;;8.17;100.00;102268.34;5009573;28;20021;-78
2024/02/03 05:37:32;;;;;;;19.35;10.80;;;;;;;8.21;100.00;102269.78;4991120;28;20104;-79
2024/02/03 05:39:58;;;;;;;18.15;10.15;;;;;;;8.12;100.00;102267.84;5009568;28;20037;-80
2024/02/03 05:42:23;;;;;;;19.92;10.13;;;;;;;8.10;100.00;102269.69;4992866;28;20060;-80
2024/02/03 05:44:49;;;;;;;23.38;10.93;;;;;;;8.16;100.00;102272.69;4991648;28;20529;-79
2024/02/03 05:47:14;;;;;;;22.65;10.85;;;;;;;8.21;100.00;102272.38;4994105;28;20069;-78
2024/02/03 05:49:40;;;;;;;19.73;11.15;;;;;;;8.14;100.00;102276.31;5005945;28;20045;-79
2024/02/03 05:52:06;;;;;;;29.80;13.07;;;;;;;8.14;100.00;102274.56;5005988;28;20036;-78
2024/02/03 05:54:32;;;;;;;57.00;21.23;;;;;;;8.15;100.00;102283.13;5007328;28;20045;-78
2024/02/03 05:56:57;;;;;;;32.40;15.80;;;;;;;8.14;100.00;102286.66;5012031;28;20030;-79
2024/02/03 05:59:22;;;;;;;28.92;14.07;;;;;;;8.14;100.00;102294.41;5012361;28;20038;-78
2024/02/03 06:01:48;;;;;;;61.35;27.90;;;;;;;8.21;100.00;102293.03;5008422;28;20038;-79
2024/02/03 06:04:13;;;;;;;59.10;22.20;;;;;;;8.14;100.00;102287.47;4993781;28;20069;-79
2024/02/03 06:06:39;;;;;;;38.60;18.83;;;;;;;8.17;100.00;102294.19;5008830;28;20469;-78
2024/02/03 06:09:04;;;;;;;73.75;28.75;;;;;;;8.16;100.00;102287.38;4991422;28;20068;-79
2024/02/03 06:11:30;;;;;;;46.65;21.25;;;;;;;8.22;100.00;102279.22;4993006;28;20033;-79
2024/02/03 06:13:55;;;;;;;26.95;12.23;;;;;;;8.10;100.00;102275.72;5011200;28;20453;-80
2024/02/03 06:16:21;;;;;;;42.88;21.02;;;;;;;8.13;100.00;102278.06;5008407;28;20042;-79
2024/02/03 06:18:46;;;;;;;32.60;15.98;;;;;;;8.05;100.00;102267.44;5005730;28;20038;-80
2024/02/03 06:21:13;;;;;;;63.83;26.73;;;;;;;8.07;100.00;102259.59;5005093;28;20028;-80
2024/02/03 06:23:38;;;;;;;34.40;16.48;;;;;;;8.10;100.00;102257.63;5027368;28;22010;-79
2024/02/03 06:26:04;;;;;;;35.13;14.25;;;;;;;8.12;100.00;102254.94;5009245;28;20029;-79
2024/02/03 06:28:29;;;;;;;37.33;17.60;;;;;;;8.13;100.00;102259.16;4994397;28;20532;-79
2024/02/03 06:30:55;;;;;;;37.65;16.58;;;;;;;8.14;100.00;102266.00;5012993;28;20034;-80
2024/02/03 06:33:20;;;;;;;45.13;18.00;;;;;;;8.13;100.00;102266.91;4991628;28;20045;-79
2024/02/03 06:35:46;;;;;;;24.88;11.93;;;;;;;8.15;100.00;102272.78;5011800;28;20044;-79
2024/02/03 06:38:11;;;;;;;52.22;24.40;;;;;;;8.05;100.00;102257.09;4997439;28;20145;-79
2024/02/03 06:40:37;;;;;;;36.92;19.23;;;;;;;8.10;100.00;102259.34;5009278;28;20041;-79
2024/02/03 06:43:03;;;;;;;25.50;12.65;;;;;;;8.06;100.00;102268.25;4995106;28;20038;-80
2024/02/03 06:45:29;;;;;;;47.20;20.67;;;;;;;8.06;100.00;102263.94;4996933;28;20044;-80
2024/02/03 06:47:54;;;;;;;30.60;13.98;;;;;;;8.15;100.00;102263.28;5011903;28;20038;-80
2024/02/03 06:50:20;;;;;;;65.32;28.75;;;;;;;8.11;100.00;102269.59;5007440;28;20033;-78
2024/02/03 06:52:45;;;;;;;24.73;14.48;;;;;;;8.16;100.00;102275.28;4997421;28;20143;-79
2024/02/03 06:55:11;;;;;;;22.88;11.57;;;;;;;8.13;100.00;102275.47;5010530;28;20041;-79
2024/02/03 06:57:36;;;;;;;22.15;12.90;;;;;;;8.19;100.00;102263.91;4996289;28;20045;-78
2024/02/03 07:00:02;;;;;;;19.60;10.60;;;;;;;8.22;100.00;102266.28;4996649;28;20028;-80
2024/02/03 07:02:28;;;;;;;22.42;11.52;;;;;;;8.14;100.00;102271.16;5013437;28;20045;-80
2024/02/03 07:04:53;;;;;;;28.73;14.40;;;;;;;8.11;100.00;102267.00;5012796;28;20602;-80
2024/02/03 07:07:19;;;;;;;25.52;13.30;;;;;;;8.15;100.00;102254.72;4996891;28;20539;-77
2024/02/03 07:09:44;;;;;;;24.45;11.85;;;;;;;8.16;100.00;102253.78;5029313;28;20038;-79
2024/02/03 07:12:09;;;;;;;30.10;14.30;;;;;;;8.16;100.00;102253.78;4992398;28;20026;-80
2024/02/03 07:14:36;;;;;;;40.90;22.33;;;;;;;8.18;100.00;102267.44;4996049;28;20383;-79
2024/02/03 07:17:01;;;;;;;22.92;13.00;;;;;;;8.17;100.00;102258.00;5010990;28;20413;-79
2024/02/03 07:19:28;;;;;;;46.08;22.95;;;;;;;8.17;100.00;102252.84;5011134;28;20556;-79
2024/02/03 07:21:53;;;;;;;24.75;13.93;;;;;;;8.17;100.00;102261.44;5011743;28;20116;-79
2024/02/03 07:24:19;;;;;;;25.10;14.35;;;;;;;8.10;100.00;102267.94;4993167;28;20048;-79
2024/02/03 07:26:44;;;;;;;26.10;14.75;;;;;;;8.26;100.00;102266.91;5000070;28;20033;-80
2024/02/03 07:29:10;;;;;;;43.22;19.17;;;;;;;8.16;100.00;102264.13;5013210;28;20116;-79
2024/02/03 07:31:35;;;;;;;35.97;15.82;;;;;;;8.23;100.00;102269.69;5013027;28;20029;-79
2024/02/03 07:34:01;;;;;;;38.83;19.20;;;;;;;8.27;100.00;102271.13;4993610;28;20045;-79
2024/02/03 07:36:27;;;;;;;49.00;24.75;;;;;;;8.26;100.00;102278.06;5013934;28;20045;-78
2024/02/03 07:38:53;;;;;;;43.53;21.42;;;;;;;8.26;100.00;102280.66;5011029;28;20512;-78
2024/02/03 07:41:19;;;;;;;47.60;22.45;;;;;;;8.28;100.00;102275.38;4995937;28;20080;-79
2024/02/03 07:43:44;;;;;;;22.83;13.60;;;;;;;8.22;100.00;102279.22;5011059;28;20044;-80
2024/02/03 07:46:11;;;;;;;23.30;12.93;;;;;;;8.24;100.00;102279.94;5031311;28;20037;-79
2024/02/03 07:48:37;;;;;;;21.90;11.57;;;;;;;8.26;100.00;102275.47;4994565;28;20921;-80
2024/02/03 07:51:02;;;;;;;20.60;11.57;;;;;;;8.38;100.00;102273.81;5010711;28;20038;-79
2024/02/03 07:53:28;;;;;;;25.63;12.25;;;;;;;8.29;100.00;102277.03;4990159;28;20133;-79
2024/02/03 07:55:53;;;;;;;30.92;16.02;;;;;;;8.29;100.00;102279.63;5014824;28;20112;-78
2024/02/03 07:58:19;;;;;;;21.30;11.65;;;;;;;8.34;100.00;102280.13;5016370;28;20038;-79
2024/02/03 08:00:44;;;;;;;22.40;11.75;;;;;;;8.25;100.00;102283.31;5013467;28;20025;-79
2024/02/03 08:03:11;;;;;;;22.13;11.30;;;;;;;8.20;100.00;102286.25;4995674;28;20038;-80
2024/02/03 08:05:37;;;;;;;25.38;11.52;;;;;;;8.29;100.00;102293.38;4993050;28;20126;-80
2024/02/03 08:08:03;;;;;;;21.73;11.27;;;;;;;8.29;100.00;102301.13;5003187;28;20046;-78
2024/02/03 08:10:29;;;;;;;25.75;11.13;;;;;;;8.44;100.00;102294.13;4994165;28;20025;-80
2024/02/03 08:12:55;;;;;;;18.67;10.40;;;;;;;8.51;100.00;102286.75;5008508;28;20130;-79
2024/02/03 08:15:21;;;;;;;18.08;10.32;;;;;;;8.43;100.00;102284.69;4996511;28;20026;-79
2024/02/03 08:17:46;;;;;;;18.73;11.65;;;;;;;8.36;100.00;102286.00;5011448;28;20042;-80
2024/02/03 08:20:12;;;;;;;22.83;11.55;;;;;;;8.37;100.00;102292.84;4991461;28;20439;-80
2024/02/03 08:22:38;;;;;;;24.70;11.82;;;;;;;8.33;100.00;102284.47;5012567;28;20040;-78
2024/02/03 08:25:06;;;;;;;23.00;11.32;;;;;;;8.43;100.00;102289.03;5011070;28;20026;-80
2024/02/03 08:27:31;;;;;;;22.27;10.73;;;;;;;8.33;100.00;102288.81;4995354;28;20084;-80
2024/02/03 08:29:57;;;;;;;20.85;11.05;;;;;;;8.35;100.00;102295.53;5008398;28;20432;-81
2024/02/03 08:32:24;;;;;;;19.02;11.75;;;;;;;8.40;100.00;102295.22;4997754;28;20033;-79
2024/02/03 08:34:50;;;;;;;21.25;12.02;;;;;;;8.48;100.00;102300.72;5005355;28;20041;-81
2024/02/03 08:37:16;;;;;;;21.58;10.85;;;;;;;8.45;100.00;102302.69;5016817;28;20037;-81
2024/02/03 08:39:41;;;;;;;42.03;21.73;;;;;;;8.45;100.00;102297.50;5012692;28;20033;-79
2024/02/03 08:42:07;;;;;;;27.83;13.75;;;;;;;8.41;100.00;102296.88;5027917;28;20030;-81
2024/02/03 08:44:32;;;;;;;74.10;28.85;;;;;;;8.47;100.00;102309.41;4992682;28;20034;-79
2024/02/03 08:46:57;;;;;;;53.00;22.40;;;;;;;8.50;100.00;102308.38;5017399;28;20096;-81
2024/02/03 08:49:23;;;;;;;50.72;23.77;;;;;;;8.55;100.00;102307.13;5009358;28;20084;-80
2024/02/03 08:51:48;;;;;;;34.75;15.63;;;;;;;8.58;100.00;102313.84;5012333;28;20030;-80
2024/02/03 08:54:14;;;;;;;40.47;20.38;;;;;;;8.51;100.00;102312.59;5011497;28;20049;-80
2024/02/03 08:56:40;;;;;;;36.30;19.58;;;;;;;8.50;100.00;102313.53;4994867;28;20022;-80
2024/02/03 08:59:05;;;;;;;24.15;15.18;;;;;;;8.47;100.00;102313.75;5010405;28;20042;-80
2024/02/03 09:01:30;;;;;;;22.33;11.45;;;;;;;8.49;100.00;102317.06;5010990;28;20041;-79
2024/02/03 09:03:56;;;;;;;25.08;13.90;;;;;;;8.52;100.00;102311.69;5007997;28;20045;-79
2024/02/03 09:06:21;;;;;;;24.48;12.93;;;;;;;8.52;100.00;102319.44;4984418;28;20460;-81
2024/02/03 09:08:47;;;;;;;18.10;10.32;;;;;;;8.54;100.00;102322.75;5023814;28;20042;-78
2024/02/03 09:11:13;;;;;;;29.50;15.48;;;;;;;8.55;100.00;102325.22;5011593;28;20520;-80
2024/02/03 09:13:38;;;;;;;22.30;10.43;;;;;;;8.55;100.00;102327.81;5008437;28;20042;-79
2024/02/03 09:16:04;;;;;;;27.10;14.73;;;;;;;8.58;100.00;102330.16;5007357;28;20429;-80
2024/02/03 09:18:30;;;;;;;23.48;12.93;;;;;;;8.58;100.00;102329.34;4992633;28;20034;-80
2024/02/03 09:20:55;;;;;;;20.60;12.05;;;;;;;8.53;100.00;102321.91;4992627;28;20033;-80
2024/02/03 09:23:20;;;;;;;33.78;16.13;;;;;;;8.50;100.00;102324.69;4988309;28;20049;-80
2024/02/03 09:25:48;;;;;;;25.30;15.10;;;;;;;8.63;100.00;102324.69;4993871;28;20041;-80
2024/02/03 09:28:13;;;;;;;25.48;10.85;;;;;;;8.53;100.00;102332.25;5007911;28;20050;-80
2024/02/03 09:30:39;;;;;;;19.30;9.43;;;;;;;8.51;100.00;102333.28;5012402;28;20041;-78
2024/02/03 09:33:04;;;;;;;20.30;10.38;;;;;;;8.65;100.00;102340.94;5007638;28;20042;-80
2024/02/03 09:35:30;;;;;;;27.33;9.85;;;;;;;8.67;100.00;102331.31;5006067;28;20041;-80
2024/02/03 09:37:55;;;;;;;16.65;9.60;;;;;;;8.66;100.00;102334.00;4995443;28;21377;-80
2024/02/03 09:40:21;;;;;;;21.25;10.27;;;;;;;8.69;100.00;102331.19;5009347;28;20041;-80
2024/02/03 09:42:48;;;;;;;18.25;9.77;;;;;;;8.62;100.00;102338.53;4991751;28;20052;-79
2024/02/03 09:45:15;;;;;;;19.15;9.38;;;;;;;8.77;100.00;102329.72;4992638;28;20072;-80
2024/02/03 09:47:46;;;;;;;18.67;9.63;;;;;;;8.80;100.00;102339.03;5003839;28;20029;-79
2024/02/03 09:50:11;;;;;;;22.42;11.32;;;;;;;8.69;100.00;102338.97;5006505;28;20038;-79
2024/02/03 09:52:37;;;;;;;19.58;11.15;;;;;;;8.71;100.00;102344.84;5007240;28;20040;-79
2024/02/03 09:55:03;;;;;;;21.27;10.13;;;;;;;8.77;100.00;102341.84;5008567;28;20022;-79
2024/02/03 09:57:29;;;;;;;23.33;10.88;;;;;;;8.77;100.00;102347.81;4993314;28;20516;-80
2024/02/03 09:59:57;;;;;;;21.23;10.02;;;;;;;8.80;100.00;102343.38;5021103;28;20022;-78
2024/02/03 10:02:23;;;;;;;19.58;9.82;;;;;;;8.83;100.00;102340.56;5013188;28;20030;-79
2024/02/03 10:04:49;;;;;;;16.60;10.45;;;;;;;8.85;100.00;102329.19;4997172;28;20037;-79
2024/02/03 10:07:18;;;;;;;23.73;10.60;;;;;;;8.92;100.00;102327.00;5013967;28;20041;-79
2024/02/03 10:09:44;;;;;;;21.83;10.93;;;;;;;9.06;100.00;102332.03;4993712;28;20448;-79
2024/02/03 10:12:19;;;;;;;24.65;12.02;;;;;;;8.94;100.00;102331.13;4995661;28;20034;-80
2024/02/03 10:14:45;;;;;;;22.30;11.18;;;;;;;8.93;100.00;102326.91;4993415;28;20084;-80
2024/02/03 10:17:19;;;;;;;22.38;11.73;;;;;;;9.04;100.00;102330.47;4998316;28;20025;-79
2024/02/03 10:19:45;;;;;;;24.60;11.98;;;;;;;9.01;100.00;102330.72;5012234;28;20041;-79
2024/02/03 10:22:10;;;;;;;19.30;11.90;;;;;;;9.06;100.00;102320.84;5027933;28;20022;-79
2024/02/03 10:24:36;;;;;;;23.77;12.05;;;;;;;9.12;100.00;102333.38;4992481;28;20045;-79
2024/02/03 10:27:03;;;;;;;22.83;12.82;;;;;;;9.06;100.00;102334.63;4996504;28;20022;-79
2024/02/03 10:29:29;;;;;;;24.83;12.32;;;;;;;9.11;100.00;102329.94;5009256;28;20037;-80
2024/02/03 10:31:54;;;;;;;24.60;12.52;;;;;;;8.99;100.00;102335.19;5014049;28;20037;-79
2024/02/03 10:34:20;;;;;;;24.88;12.73;;;;;;;9.03;100.00;102334.84;5010078;28;20084;-79
2024/02/03 10:36:46;;;;;;;25.67;14.25;;;;;;;9.11;100.00;102329.13;5029557;28;20033;-78
2024/02/03 10:39:12;;;;;;;30.67;14.88;;;;;;;9.13;100.00;102330.66;5009959;28;20038;-79
2024/02/03 10:41:40;;;;;;;27.02;14.38;;;;;;;9.17;100.00;102333.84;5012638;28;20030;-79
2024/02/03 10:44:07;;;;;;;29.23;14.43;;;;;;;9.15;100.00;102325.38;5015085;28;20026;-79
2024/02/03 10:46:39;;;;;;;31.02;15.02;;;;;;;9.19;100.00;102325.97;5014279;28;20125;-79
2024/02/03 10:49:12;;;;;;;27.75;14.65;;;;;;;9.19;100.00;102321.63;4989296;28;20038;-77
2024/02/03 10:51:40;;;;;;;28.00;14.93;;;;;;;9.22;100.00;102324.00;4995000;28;20393;-79
2024/02/03 10:54:20;;;;;;;25.67;13.07;;;;;;;9.32;100.00;102312.06;5014514;28;20424;-78
2024/02/03 10:56:49;;;;;;;27.80;14.13;;;;;;;9.27;100.00;102318.50;5028411;28;20034;-79
2024/02/03 10:59:22;;;;;;;28.25;15.30;;;;;;;9.38;100.00;102315.97;4992821;28;20100;-78
2024/02/03 11:01:47;;;;;;;25.13;13.10;;;;;;;9.25;100.00;102318.63;5027414;28;20038;-79
2024/02/03 11:04:14;;;;;;;22.52;13.07;;;;;;;9.45;100.00;102311.16;4993343;28;20060;-79